createdAt,value
2022-08-21T00:01:57.869Z,14.3
2022-08-21T00:13:58.009Z,13.9
2022-08-21T00:25:57.947Z,13.7
2022-08-21T00:37:58.544Z,14.1
2022-08-21T00:49:58.188Z,14.2
2022-08-21T01:01:58.300Z,14.1
2022-08-21T01:13:57.881Z,14.0
2022-08-21T01:25:57.991Z,13.8
2022-08-21T01:37:58.052Z,13.5
2022-08-21T01:49:57.989Z,13.3
2022-08-21T02:01:58.333Z,13.1
2022-08-21T02:13:58.008Z,12.9
2022-08-21T02:25:57.976Z,12.7
2022-08-21T02:37:58.048Z,12.5
2022-08-21T02:49:57.931Z,12.4
2022-08-21T03:01:58.259Z,12.2
2022-08-21T03:13:58.237Z,12.2
2022-08-21T03:25:57.996Z,12.2
2022-08-21T03:37:57.977Z,11.9
2022-08-21T03:49:57.852Z,11.8
2022-08-21T04:01:58.125Z,12.1
2022-08-21T04:13:58.197Z,12.1
2022-08-21T04:25:57.901Z,11.9
2022-08-21T04:37:57.876Z,11.9
2022-08-21T04:49:58.214Z,12.0
2022-08-21T05:01:57.972Z,12.0
2022-08-21T05:13:58.080Z,12.1
2022-08-21T05:25:58.237Z,12.4
2022-08-21T05:37:57.933Z,12.6
2022-08-21T05:49:57.882Z,13.0
2022-08-21T06:02:01.166Z,13.8
2022-08-21T06:13:57.931Z,14.6
2022-08-21T06:25:58.151Z,15.8
2022-08-21T06:37:58.501Z,16.6
2022-08-21T06:49:58.096Z,16.9
2022-08-21T07:01:58.082Z,17.7
2022-08-21T07:13:58.318Z,18.1
2022-08-21T07:25:57.939Z,18.5
2022-08-21T07:37:58.000Z,19.0
2022-08-21T07:49:58.287Z,19.6
2022-08-21T08:01:58.402Z,20.4
2022-08-21T08:13:58.227Z,20.6
2022-08-21T08:25:58.456Z,21.0
2022-08-21T08:37:58.466Z,21.7
2022-08-21T08:49:58.048Z,21.8
2022-08-21T09:01:58.320Z,21.6
2022-08-21T09:13:58.220Z,22.3
2022-08-21T09:25:58.115Z,22.4
2022-08-21T09:37:58.193Z,23.9
2022-08-21T09:49:58.335Z,23.8
2022-08-21T10:01:58.436Z,23.4
2022-08-21T10:13:58.483Z,23.9
2022-08-21T10:26:13.474Z,23.9
2022-08-21T10:37:58.912Z,24.3
2022-08-21T10:49:58.847Z,23.1
2022-08-21T11:01:58.042Z,24.1
2022-08-21T11:13:58.329Z,24.8
2022-08-21T11:25:58.239Z,24.2
2022-08-21T11:37:58.472Z,25.2
2022-08-21T11:49:58.238Z,24.9
2022-08-21T12:01:58.284Z,25.2
2022-08-21T12:13:58.528Z,26.0
2022-08-21T12:25:58.206Z,25.6
2022-08-21T12:37:58.225Z,24.1
2022-08-21T12:49:58.286Z,24.9
2022-08-21T13:01:58.350Z,24.6
2022-08-21T13:14:02.439Z,24.7
2022-08-21T13:25:57.886Z,25.2
2022-08-21T13:37:58.271Z,26.1
2022-08-21T13:49:59.377Z,26.6
2022-08-21T14:01:58.382Z,25.9
2022-08-21T14:13:57.869Z,24.9
2022-08-21T14:25:57.931Z,25.2
2022-08-21T14:37:57.913Z,25.1
2022-08-21T14:49:57.967Z,25.9
2022-08-21T15:01:57.919Z,25.5
2022-08-21T15:13:57.940Z,25.6
2022-08-21T15:25:57.885Z,25.5
2022-08-21T15:37:57.859Z,25.2
2022-08-21T15:49:57.878Z,25.2
2022-08-21T16:01:57.881Z,24.9
2022-08-21T16:13:57.868Z,24.5
2022-08-21T16:25:57.836Z,24.3
2022-08-21T16:37:57.827Z,24.1
2022-08-21T16:49:57.863Z,24.1
2022-08-21T17:01:57.843Z,24.0
2022-08-21T17:13:57.858Z,23.8
2022-08-21T17:25:57.908Z,23.3
2022-08-21T17:37:57.899Z,22.9
2022-08-21T17:49:57.848Z,22.7
2022-08-21T18:01:57.914Z,22.5
2022-08-21T18:13:57.862Z,22.4
2022-08-21T18:25:57.854Z,22.1
2022-08-21T18:37:57.878Z,21.7
2022-08-21T18:49:57.881Z,21.5
2022-08-21T19:01:57.865Z,21.2
2022-08-21T19:13:57.864Z,21.1
2022-08-21T19:26:00.534Z,21.0
2022-08-21T19:37:57.820Z,20.7
2022-08-21T19:49:57.879Z,20.6
2022-08-21T20:01:57.848Z,20.3
2022-08-21T20:13:57.816Z,20.1
2022-08-21T20:25:57.876Z,19.9
2022-08-21T20:37:58.986Z,19.8
2022-08-21T20:49:59.481Z,19.7
2022-08-21T21:01:57.868Z,19.5
2022-08-21T21:13:57.823Z,19.4
2022-08-21T21:25:57.861Z,19.1
2022-08-21T21:37:57.859Z,19.2
2022-08-21T21:49:57.831Z,18.9
2022-08-21T22:01:57.861Z,18.8
2022-08-21T22:13:57.846Z,18.6
2022-08-21T22:25:57.859Z,18.6
2022-08-21T22:37:57.845Z,18.1
2022-08-21T23:01:57.842Z,18.1
2022-08-21T23:13:57.863Z,18.2
2022-08-21T23:25:57.862Z,18.1
2022-08-21T23:37:57.875Z,17.7
2022-08-21T23:49:57.870Z,17.7
